Terminal Aerodrome Forecast
Issued by NWS Brownsville, TX

Home | Current Version | Previous Version | Text Only | Print | Product List | Glossary On
Versions: 1 2 3 4 5 6 7 8 9 10 11 12 13 14 15 16 17
659
FTUS44 KBRO 220541
TAFMFE
TAF
KMFE 220541Z 2206/2306 13006KT P6SM SKC
      TEMPO 2210/2214 5SM BR BKN030
     FM221500 13010KT P6SM SCT050
     FM222000 11012G18KT P6SM FEW050
     FM230200 11009KT P6SM SCT040=

USA.gov is the U.S. government's official web portal to all federal, state and local government web resources and services.